createdAt,value
2018-05-16T00:02:12.415Z,15.17
2018-05-16T00:04:40.670Z,26.57
2018-05-16T00:07:08.156Z,22.30
2018-05-16T00:09:35.687Z,15.73
2018-05-16T00:12:03.163Z,17.33
2018-05-16T00:14:31.418Z,23.13
2018-05-16T00:16:58.897Z,21.57
2018-05-16T00:19:27.128Z,21.90
2018-05-16T00:21:54.707Z,20.13
2018-05-16T00:24:22.189Z,20.83
2018-05-16T00:26:50.439Z,29.60
2018-05-16T00:29:17.919Z,24.43
2018-05-16T00:31:46.162Z,35.70
2018-05-16T00:34:13.761Z,29.17
2018-05-16T00:36:41.227Z,30.90
2018-05-16T00:39:08.698Z,37.90
2018-05-16T00:41:36.209Z,34.00
2018-05-16T00:44:03.683Z,33.57
2018-05-16T00:46:31.928Z,37.83
2018-05-16T00:48:59.549Z,37.70
2018-05-16T00:51:31.455Z,34.80
2018-05-16T00:53:58.941Z,31.13
2018-05-16T00:56:26.482Z,33.20
2018-05-16T00:58:54.722Z,29.20
2018-05-16T01:01:22.229Z,31.30
2018-05-16T01:03:50.463Z,33.47
2018-05-16T01:06:17.968Z,38.73
2018-05-16T01:08:45.442Z,33.90
2018-05-16T01:11:12.957Z,34.97
2018-05-16T01:13:40.444Z,33.17
2018-05-16T01:16:07.913Z,31.17
2018-05-16T01:18:35.473Z,30.30
2018-05-16T01:21:02.934Z,37.77
2018-05-16T01:23:30.415Z,27.30
2018-05-16T01:25:58.003Z,29.47
2018-05-16T01:28:26.280Z,33.43
2018-05-16T01:30:54.509Z,32.93
2018-05-16T01:33:22.008Z,35.07
2018-05-16T01:35:49.486Z,29.83
2018-05-16T01:38:17.748Z,30.73
2018-05-16T01:40:46.016Z,29.03
2018-05-16T01:43:13.588Z,31.30
2018-05-16T01:45:42.590Z,32.43
2018-05-16T01:48:10.991Z,31.13
2018-05-16T01:50:38.457Z,34.30
2018-05-16T01:53:05.963Z,33.87
2018-05-16T01:55:34.210Z,34.10
2018-05-16T01:58:01.684Z,27.50
2018-05-16T02:00:29.157Z,32.73
2018-05-16T02:02:57.399Z,32.90
2018-05-16T02:05:24.874Z,37.27
2018-05-16T02:07:52.439Z,35.50
2018-05-16T02:10:20.439Z,36.90
2018-05-16T02:12:47.922Z,38.13
2018-05-16T02:15:15.390Z,36.93
2018-05-16T02:17:42.888Z,36.67
2018-05-16T02:20:11.197Z,36.03
2018-05-16T02:22:38.594Z,37.03
2018-05-16T02:25:06.066Z,37.33
2018-05-16T02:27:33.632Z,44.33
2018-05-16T02:30:01.888Z,37.20
2018-05-16T02:32:29.444Z,36.13
2018-05-16T02:34:56.922Z,37.10
2018-05-16T02:37:25.166Z,43.50
2018-05-16T02:39:52.626Z,39.13
2018-05-16T02:42:20.111Z,38.50
2018-05-16T02:44:47.673Z,40.90
2018-05-16T02:47:15.929Z,38.40
2018-05-16T02:49:43.500Z,43.20
2018-05-16T02:52:10.959Z,45.20
2018-05-16T02:54:39.231Z,39.90
2018-05-16T02:57:06.699Z,39.87
2018-05-16T02:59:34.938Z,44.30
2018-05-16T03:02:02.468Z,42.60
2018-05-16T03:04:29.930Z,44.27
2018-05-16T03:06:57.424Z,39.00
2018-05-16T03:09:24.912Z,42.83
2018-05-16T03:11:52.381Z,38.13
2018-05-16T03:14:19.851Z,39.57
2018-05-16T03:16:47.344Z,43.07
2018-05-16T03:19:14.824Z,43.87
2018-05-16T03:21:43.092Z,47.50
2018-05-16T03:24:10.651Z,43.83
2018-05-16T03:26:38.205Z,43.00
2018-05-16T03:29:05.690Z,42.80
2018-05-16T03:31:33.183Z,46.30
2018-05-16T03:34:00.667Z,45.47
2018-05-16T03:36:28.151Z,45.97
2018-05-16T03:38:56.382Z,45.27
2018-05-16T03:41:23.856Z,43.83
2018-05-16T03:43:51.480Z,50.37
2018-05-16T03:46:18.943Z,47.00
2018-05-16T03:48:46.407Z,47.97
2018-05-16T03:51:13.896Z,45.57
2018-05-16T03:53:41.464Z,55.77
2018-05-16T03:56:09.011Z,44.00
2018-05-16T03:58:48.554Z,43.87
2018-05-16T04:01:27.930Z,43.20
2018-05-16T04:04:19.157Z,49.37
2018-05-16T04:06:46.648Z,49.87
2018-05-16T04:09:14.176Z,51.13
2018-05-16T04:11:41.651Z,62.97
2018-05-16T04:14:09.111Z,56.50
2018-05-16T04:16:36.736Z,60.03
2018-05-16T04:19:04.166Z,55.10
2018-05-16T04:21:32.425Z,58.40
2018-05-16T04:23:59.982Z,60.50
2018-05-16T04:26:27.647Z,61.60
2018-05-16T04:28:55.157Z,54.27
2018-05-16T04:31:23.372Z,66.80
2018-05-16T04:33:50.942Z,56.47
2018-05-16T04:36:19.213Z,52.57
2018-05-16T04:38:46.789Z,59.20
2018-05-16T04:41:15.100Z,62.57
2018-05-16T04:43:42.578Z,57.87
2018-05-16T04:46:10.163Z,54.00
2018-05-16T04:48:37.639Z,45.40
2018-05-16T04:51:05.904Z,60.20
2018-05-16T04:53:34.188Z,55.07
2018-05-16T04:56:02.503Z,51.70
2018-05-16T04:58:29.979Z,55.17
2018-05-16T05:00:57.567Z,56.30
2018-05-16T05:03:24.967Z,56.00
2018-05-16T05:05:52.448Z,53.00
2018-05-16T05:08:19.920Z,50.77
2018-05-16T05:10:47.393Z,49.63
2018-05-16T05:13:14.885Z,49.33
2018-05-16T05:15:42.460Z,53.80
2018-05-16T05:18:10.180Z,47.87
2018-05-16T05:20:38.323Z,50.00
2018-05-16T05:23:05.910Z,50.87
2018-05-16T05:25:33.400Z,45.80
2018-05-16T05:28:00.873Z,48.67
2018-05-16T05:30:28.346Z,45.83
2018-05-16T05:32:55.832Z,48.63
2018-05-16T05:35:23.290Z,45.03
2018-05-16T05:37:50.851Z,47.53
2018-05-16T05:40:18.460Z,46.17
2018-05-16T05:42:45.962Z,47.87
2018-05-16T05:45:13.527Z,42.57
2018-05-16T05:47:40.990Z,41.70
2018-05-16T05:50:09.228Z,41.70
2018-05-16T05:52:36.712Z,40.60
2018-05-16T05:55:04.241Z,42.23
2018-05-16T05:57:31.727Z,46.37
2018-05-16T06:00:00.063Z,45.10
2018-05-16T06:02:28.337Z,42.23
2018-05-16T06:04:55.846Z,47.20
2018-05-16T06:07:24.119Z,46.57
2018-05-16T06:09:51.588Z,38.37
2018-05-16T06:12:19.897Z,37.43
2018-05-16T06:14:47.403Z,36.67
2018-05-16T06:17:15.046Z,38.40
2018-05-16T06:19:42.735Z,43.87
2018-05-16T06:22:10.173Z,37.37
2018-05-16T06:24:37.649Z,35.70
2018-05-16T06:27:05.931Z,37.57
2018-05-16T06:29:34.202Z,33.37
2018-05-16T06:32:02.435Z,33.70
2018-05-16T06:34:29.976Z,35.87
2018-05-16T06:36:57.453Z,34.20
2018-05-16T06:39:24.934Z,38.63
2018-05-16T06:41:52.589Z,35.97
2018-05-16T06:44:20.771Z,33.90
2018-05-16T06:46:49.760Z,35.10
2018-05-16T06:49:17.327Z,44.90
2018-05-16T06:51:46.295Z,38.17
2018-05-16T06:54:13.793Z,31.00
2018-05-16T06:56:42.045Z,36.30
2018-05-16T06:59:11.043Z,36.10
2018-05-16T07:01:38.507Z,44.07
2018-05-16T07:04:06.075Z,37.07
2018-05-16T07:06:34.326Z,33.93
2018-05-16T07:09:01.787Z,34.90
2018-05-16T07:11:29.255Z,33.77
2018-05-16T07:13:56.812Z,30.77
2018-05-16T07:16:25.779Z,35.60
2018-05-16T07:18:53.270Z,34.70
2018-05-16T07:21:21.506Z,36.23
2018-05-16T07:23:48.986Z,30.20
2018-05-16T07:26:17.987Z,31.07
2018-05-16T07:28:45.542Z,35.93
2018-05-16T07:31:13.094Z,29.43
2018-05-16T07:33:40.555Z,32.80
2018-05-16T07:36:08.115Z,36.73
2018-05-16T07:38:35.587Z,33.53
2018-05-16T07:41:03.873Z,28.70
2018-05-16T07:43:31.409Z,27.23
2018-05-16T07:45:58.896Z,29.40
2018-05-16T07:48:26.367Z,30.40
2018-05-16T07:50:53.871Z,28.30
2018-05-16T07:53:21.432Z,24.70
2018-05-16T07:55:48.991Z,27.27
2018-05-16T07:58:16.454Z,30.13
2018-05-16T08:00:43.941Z,25.80
2018-05-16T08:03:12.271Z,26.87
2018-05-16T08:05:39.731Z,32.93
2018-05-16T08:08:07.292Z,24.20
2018-05-16T08:10:34.754Z,25.63
2018-05-16T08:13:02.234Z,26.67
2018-05-16T08:15:30.495Z,26.47
2018-05-16T08:17:57.964Z,24.20
2018-05-16T08:20:26.198Z,32.40
2018-05-16T08:22:53.682Z,26.17
2018-05-16T08:25:21.162Z,28.43
2018-05-16T08:27:48.691Z,29.57
2018-05-16T08:30:16.968Z,28.77
2018-05-16T08:32:45.203Z,22.60
2018-05-16T08:35:12.705Z,21.57
2018-05-16T08:37:40.256Z,22.00
2018-05-16T08:40:07.808Z,18.43
2018-05-16T08:42:36.051Z,22.40
2018-05-16T08:45:03.513Z,23.80
2018-05-16T08:47:30.985Z,21.70
2018-05-16T08:49:58.474Z,21.97
2018-05-16T08:52:26.738Z,19.83
2018-05-16T08:54:54.348Z,21.50
2018-05-16T08:57:21.817Z,18.40
2018-05-16T08:59:49.285Z,18.63
2018-05-16T09:02:16.755Z,12.80
2018-05-16T09:04:44.236Z,20.07
2018-05-16T09:07:12.491Z,22.60
2018-05-16T09:09:39.953Z,17.47
2018-05-16T09:12:08.186Z,23.50
2018-05-16T09:14:35.656Z,18.93
2018-05-16T09:17:03.164Z,17.03
2018-05-16T09:19:31.406Z,18.40
2018-05-16T09:21:58.969Z,15.50
2018-05-16T09:24:27.951Z,16.43
2018-05-16T09:26:55.420Z,15.47
2018-05-16T09:29:22.893Z,15.73
2018-05-16T09:31:50.358Z,16.30
2018-05-16T09:34:18.616Z,15.10
2018-05-16T09:36:46.085Z,12.93
2018-05-16T09:39:14.316Z,13.60
2018-05-16T09:41:41.795Z,14.47
2018-05-16T09:44:09.284Z,10.60
2018-05-16T09:46:37.531Z,14.40
2018-05-16T09:49:04.997Z,11.30
2018-05-16T09:51:33.361Z,12.10
2018-05-16T09:54:01.523Z,12.67
2018-05-16T09:56:28.995Z,9.90
2018-05-16T09:58:56.463Z,11.37
2018-05-16T10:01:23.930Z,16.97
2018-05-16T10:03:52.169Z,10.70
2018-05-16T10:06:19.631Z,11.90
2018-05-16T10:08:47.112Z,10.00
2018-05-16T10:11:14.575Z,8.80
2018-05-16T10:13:42.832Z,9.60
2018-05-16T10:16:10.391Z,9.33
2018-05-16T10:18:37.842Z,7.63
2018-05-16T10:21:05.300Z,7.87
2018-05-16T10:23:32.772Z,7.43
2018-05-16T10:26:00.254Z,7.83
2018-05-16T10:28:27.747Z,10.47
2018-05-16T10:30:55.209Z,7.33
2018-05-16T10:33:22.687Z,10.03
2018-05-16T10:35:50.142Z,9.37
2018-05-16T10:38:17.656Z,15.17
2018-05-16T10:40:45.153Z,8.10
2018-05-16T10:43:12.664Z,6.37
2018-05-16T10:45:40.113Z,7.10
2018-05-16T10:48:07.582Z,7.40
2018-05-16T10:50:35.045Z,7.90
2018-05-16T10:53:02.507Z,6.53
2018-05-16T10:55:30.010Z,5.73
2018-05-16T10:57:57.458Z,5.83
2018-05-16T11:00:24.953Z,6.13
2018-05-16T11:02:52.491Z,6.23
2018-05-16T11:05:20.018Z,20.07
2018-05-16T11:07:47.494Z,5.43
2018-05-16T11:10:14.956Z,5.13
2018-05-16T11:12:42.494Z,5.20
2018-05-16T11:15:10.051Z,6.60
2018-05-16T11:17:37.678Z,6.50
2018-05-16T11:20:05.153Z,7.13
2018-05-16T11:22:32.610Z,6.23
2018-05-16T11:25:00.132Z,5.03
2018-05-16T11:27:27.590Z,5.63
2018-05-16T11:29:55.063Z,7.17
2018-05-16T11:32:22.563Z,6.17
2018-05-16T11:34:50.023Z,8.53
2018-05-16T11:37:17.479Z,5.40
2018-05-16T11:39:45.027Z,5.17
2018-05-16T11:42:12.610Z,7.23
2018-05-16T11:44:40.081Z,12.33
2018-05-16T11:47:08.335Z,9.40
2018-05-16T11:49:35.875Z,11.93
2018-05-16T11:52:03.429Z,6.00
2018-05-16T11:54:30.891Z,5.80
2018-05-16T11:56:58.451Z,6.97
2018-05-16T11:59:25.914Z,6.90
2018-05-16T12:01:53.379Z,9.20
2018-05-16T12:04:20.926Z,7.27
2018-05-16T12:06:48.487Z,6.90
2018-05-16T12:09:16.490Z,6.97
2018-05-16T12:11:44.012Z,7.53
2018-05-16T12:14:11.569Z,6.80
2018-05-16T12:16:39.130Z,6.10
2018-05-16T12:19:06.686Z,7.03
2018-05-16T12:21:34.191Z,7.63
2018-05-16T12:24:01.631Z,6.13
2018-05-16T12:26:29.883Z,7.03
2018-05-16T12:28:57.548Z,6.33
2018-05-16T12:31:24.926Z,5.03
2018-05-16T12:33:53.168Z,6.23
2018-05-16T12:36:20.626Z,6.27
2018-05-16T12:38:48.096Z,6.37
2018-05-16T12:41:16.339Z,6.07
2018-05-16T12:43:43.817Z,6.40
2018-05-16T12:46:11.276Z,7.57
2018-05-16T12:48:38.742Z,6.30
2018-05-16T12:51:06.218Z,7.60
2018-05-16T12:53:34.439Z,7.00
2018-05-16T12:56:01.906Z,5.20
2018-05-16T12:58:29.383Z,7.00
2018-05-16T13:00:56.858Z,5.80
2018-05-16T13:03:24.344Z,5.90
2018-05-16T13:05:51.817Z,11.30
2018-05-16T13:08:19.308Z,7.70
2018-05-16T13:10:46.791Z,10.50
2018-05-16T13:13:15.041Z,8.77
2018-05-16T13:15:43.325Z,5.60
2018-05-16T13:18:11.023Z,7.47
2018-05-16T13:20:38.392Z,5.10
2018-05-16T13:23:05.856Z,4.57
2018-05-16T13:25:33.307Z,4.00
2018-05-16T13:28:00.768Z,10.43
2018-05-16T13:30:28.264Z,4.17
2018-05-16T13:32:55.727Z,5.47
2018-05-16T13:35:23.210Z,7.03
2018-05-16T13:37:50.684Z,10.13
2018-05-16T13:40:18.153Z,4.70
2018-05-16T13:42:45.728Z,7.83
2018-05-16T13:45:13.188Z,4.10
2018-05-16T13:47:40.642Z,7.33
2018-05-16T13:50:08.209Z,3.93
2018-05-16T13:52:35.680Z,5.60
2018-05-16T13:55:03.129Z,6.73
2018-05-16T13:57:30.595Z,8.23
2018-05-16T13:59:58.147Z,4.77
2018-05-16T14:02:25.614Z,4.40
2018-05-16T14:04:53.835Z,7.47
2018-05-16T14:07:21.309Z,5.10
2018-05-16T14:09:48.771Z,7.60
2018-05-16T14:12:16.256Z,5.70
2018-05-16T14:14:43.819Z,7.70
2018-05-16T14:17:11.294Z,5.33
2018-05-16T14:19:38.757Z,6.97
2018-05-16T14:22:06.330Z,4.47
2018-05-16T14:24:33.835Z,4.87
2018-05-16T14:27:01.305Z,8.33
2018-05-16T14:29:29.565Z,12.83
2018-05-16T14:31:57.070Z,8.33
2018-05-16T14:34:24.574Z,5.40
2018-05-16T14:36:52.134Z,4.60
2018-05-16T14:39:19.602Z,5.13
2018-05-16T14:41:47.046Z,5.60
2018-05-16T14:44:14.529Z,19.70
2018-05-16T14:46:42.796Z,16.20
2018-05-16T14:49:10.344Z,6.97
2018-05-16T14:51:37.827Z,4.40
2018-05-16T14:54:06.054Z,8.53
2018-05-16T14:56:33.536Z,4.47
2018-05-16T14:59:01.086Z,5.43
2018-05-16T15:01:29.307Z,5.77
2018-05-16T15:03:56.844Z,7.10
2018-05-16T15:06:25.111Z,8.77
2018-05-16T15:08:52.594Z,5.77
2018-05-16T15:11:20.109Z,6.77
2018-05-16T15:13:47.663Z,6.70
2018-05-16T15:16:15.223Z,6.50
2018-05-16T15:18:42.692Z,5.20
2018-05-16T15:21:10.292Z,6.80
2018-05-16T15:23:37.872Z,5.97
2018-05-16T15:26:05.327Z,3.90
2018-05-16T15:28:32.804Z,6.30
2018-05-16T15:31:00.275Z,6.23
2018-05-16T15:33:27.834Z,4.10
2018-05-16T15:35:55.387Z,5.10
2018-05-16T15:38:23.043Z,7.20
2018-05-16T15:40:50.404Z,5.20
2018-05-16T15:43:17.890Z,4.30
2018-05-16T15:45:46.144Z,9.03
2018-05-16T15:48:13.695Z,6.07
2018-05-16T15:50:41.150Z,4.03
2018-05-16T15:53:12.407Z,10.70
2018-05-16T15:55:39.875Z,5.83
2018-05-16T15:58:08.102Z,7.03
2018-05-16T16:00:35.579Z,4.40
2018-05-16T16:03:03.170Z,6.40
2018-05-16T16:05:31.412Z,6.20
2018-05-16T16:07:58.864Z,4.73
2018-05-16T16:10:26.371Z,5.63
2018-05-16T16:12:53.939Z,5.27
2018-05-16T16:15:21.514Z,5.03
2018-05-16T16:17:48.972Z,5.00
2018-05-16T16:20:16.438Z,4.83
2018-05-16T16:22:43.905Z,11.50
2018-05-16T16:25:11.378Z,8.10
2018-05-16T16:27:38.841Z,9.13
2018-05-16T16:30:06.306Z,11.73
2018-05-16T16:32:33.916Z,5.20
2018-05-16T16:35:01.945Z,9.97
2018-05-16T16:37:29.491Z,6.83
2018-05-16T16:39:56.947Z,6.20
2018-05-16T16:42:24.413Z,8.60
2018-05-16T16:44:51.918Z,5.67
2018-05-16T16:47:19.363Z,4.97
2018-05-16T16:49:46.875Z,6.33
2018-05-16T16:52:14.334Z,5.50
2018-05-16T16:54:41.807Z,22.40
2018-05-16T16:57:10.241Z,7.47
2018-05-16T16:59:37.511Z,4.90
2018-05-16T17:02:04.970Z,5.57
2018-05-16T17:04:32.440Z,5.83
2018-05-16T17:06:59.911Z,6.03
2018-05-16T17:09:28.267Z,5.03
2018-05-16T17:11:56.439Z,5.60
2018-05-16T17:14:23.895Z,7.80
2018-05-16T17:16:51.454Z,7.27
2018-05-16T17:19:18.906Z,5.10
2018-05-16T17:21:46.380Z,7.90
2018-05-16T17:24:14.740Z,7.10
2018-05-16T17:26:42.889Z,6.30
2018-05-16T17:29:10.349Z,6.37
2018-05-16T17:31:37.824Z,9.43
2018-05-16T17:34:05.339Z,6.80
2018-05-16T17:36:32.824Z,11.43
2018-05-16T17:39:00.305Z,12.93
2018-05-16T17:41:27.763Z,8.37
2018-05-16T17:43:55.317Z,7.13
2018-05-16T17:46:22.786Z,11.73
2018-05-16T17:48:50.241Z,6.30
2018-05-16T17:51:17.791Z,6.73
2018-05-16T17:53:45.355Z,7.00
2018-05-16T17:56:14.338Z,5.80
2018-05-16T17:58:41.799Z,7.80
2018-05-16T18:01:09.279Z,7.63
2018-05-16T18:03:37.602Z,7.90
2018-05-16T18:06:05.158Z,8.57
2018-05-16T18:08:32.624Z,6.30
2018-05-16T18:11:00.114Z,8.40
2018-05-16T18:16:47.138Z,6.53
2018-05-16T18:19:14.621Z,9.07
2018-05-16T18:21:42.889Z,10.50
2018-05-16T18:24:11.122Z,7.00
2018-05-16T18:26:38.603Z,8.60
2018-05-16T18:29:06.174Z,8.40
2018-05-16T18:31:33.724Z,7.67
2018-05-16T18:34:02.007Z,8.50
2018-05-16T18:36:30.270Z,10.23
2018-05-16T18:38:57.730Z,6.50
2018-05-16T18:41:25.286Z,11.27
2018-05-16T18:43:52.848Z,8.97
2018-05-16T18:46:20.290Z,7.40
2018-05-16T18:48:47.763Z,13.63
2018-05-16T18:51:15.223Z,7.00
2018-05-16T18:53:42.684Z,9.60
2018-05-16T18:56:10.914Z,6.90
2018-05-16T18:58:38.406Z,8.30
2018-05-16T19:01:05.871Z,7.53
2018-05-16T19:03:34.108Z,11.73
2018-05-16T19:06:01.585Z,6.77
2018-05-16T19:08:29.158Z,10.43
2018-05-16T19:10:56.614Z,10.77
2018-05-16T19:13:24.088Z,10.50
2018-05-16T19:15:52.320Z,8.40
2018-05-16T19:18:19.787Z,8.20
2018-05-16T19:20:47.259Z,8.93
2018-05-16T19:23:14.720Z,8.17
2018-05-16T19:25:42.974Z,11.20
2018-05-16T19:28:10.434Z,10.50
2018-05-16T19:30:37.902Z,9.10
2018-05-16T19:33:05.464Z,10.60
2018-05-16T19:35:33.010Z,9.40
2018-05-16T19:38:00.584Z,13.40
2018-05-16T19:40:28.935Z,14.63
2018-05-16T19:42:57.099Z,8.03
2018-05-16T19:45:24.566Z,9.27
2018-05-16T19:47:52.048Z,12.37
2018-05-16T19:50:20.295Z,14.03
2018-05-16T19:52:47.855Z,11.27
2018-05-16T19:55:15.346Z,10.60
2018-05-16T19:57:43.604Z,12.37
2018-05-16T20:00:11.166Z,11.53
2018-05-16T20:02:38.718Z,11.50
2018-05-16T20:05:06.184Z,13.20
2018-05-16T20:07:33.793Z,11.57
2018-05-16T20:10:01.269Z,8.00
2018-05-16T20:12:28.760Z,17.33
2018-05-16T20:14:56.347Z,8.80
2018-05-16T20:17:24.453Z,10.17
2018-05-16T20:19:51.917Z,9.37
2018-05-16T20:22:19.383Z,10.83
2018-05-16T20:24:46.971Z,12.73
2018-05-16T20:27:14.512Z,11.57
2018-05-16T20:29:41.988Z,9.20
2018-05-16T20:32:10.234Z,12.00
2018-05-16T20:34:37.706Z,12.90
2018-05-16T20:37:05.255Z,9.37
2018-05-16T20:39:32.799Z,12.67
2018-05-16T20:42:00.300Z,10.87
2018-05-16T20:44:28.558Z,10.50
2018-05-16T20:46:56.173Z,12.43
2018-05-16T20:49:23.622Z,13.00
2018-05-16T20:51:51.080Z,9.40
2018-05-16T20:54:18.550Z,13.70
2018-05-16T20:56:46.018Z,13.40
2018-05-16T20:59:13.473Z,16.17
2018-05-16T21:01:40.944Z,9.37
2018-05-16T21:04:08.399Z,12.50
2018-05-16T21:06:35.967Z,11.07
2018-05-16T21:09:03.432Z,11.63
2018-05-16T21:11:30.887Z,11.73
2018-05-16T21:13:58.358Z,11.27
2018-05-16T21:16:26.606Z,11.63
2018-05-16T21:18:54.070Z,18.90
2018-05-16T21:21:21.539Z,17.23
2018-05-16T21:23:48.995Z,10.33
2018-05-16T21:26:16.536Z,11.40
2018-05-16T21:28:44.843Z,11.20
2018-05-16T21:31:12.266Z,10.60
2018-05-16T21:33:39.830Z,17.80
2018-05-16T21:36:07.326Z,12.17
2018-05-16T21:38:34.855Z,11.57
2018-05-16T21:41:02.320Z,12.90
2018-05-16T21:43:29.774Z,13.53
2018-05-16T21:45:58.063Z,11.83
2018-05-16T21:48:26.279Z,9.23
2018-05-16T21:50:53.749Z,13.17
2018-05-16T21:53:21.216Z,10.43
2018-05-16T21:55:48.707Z,12.30
2018-05-16T21:58:16.927Z,13.90
2018-05-16T22:00:44.478Z,14.10
2018-05-16T22:03:11.934Z,13.47
2018-05-16T22:05:39.401Z,16.17
2018-05-16T22:08:06.897Z,17.07
2018-05-16T22:10:34.488Z,16.70
2018-05-16T22:13:02.718Z,10.53
2018-05-16T22:15:30.229Z,15.97
2018-05-16T22:17:57.697Z,10.60
2018-05-16T22:20:25.158Z,14.23
2018-05-16T22:22:52.674Z,15.70
2018-05-16T22:25:20.926Z,10.77
2018-05-16T22:27:48.481Z,14.63
2018-05-16T22:30:16.303Z,13.63
2018-05-16T22:32:49.407Z,14.77
2018-05-16T22:35:22.651Z,11.30
2018-05-16T22:37:56.579Z,11.97
2018-05-16T22:40:29.783Z,12.50
2018-05-16T22:42:56.804Z,12.10
2018-05-16T22:45:31.035Z,11.97
2018-05-16T22:47:58.555Z,16.00
2018-05-16T22:50:26.036Z,12.27
2018-05-16T22:52:54.338Z,11.73
2018-05-16T22:55:21.843Z,14.33
2018-05-16T22:57:49.334Z,16.43
2018-05-16T23:00:18.590Z,13.90
2018-05-16T23:02:46.836Z,13.23
2018-05-16T23:05:14.311Z,12.33
2018-05-16T23:07:41.878Z,12.03
2018-05-16T23:10:09.344Z,10.43
2018-05-16T23:12:36.802Z,9.63
2018-05-16T23:15:04.313Z,16.43
2018-05-16T23:17:31.781Z,10.17
2018-05-16T23:19:59.273Z,14.20
2018-05-16T23:22:26.833Z,9.93
2018-05-16T23:24:54.308Z,11.10
2018-05-16T23:27:22.533Z,12.43
2018-05-16T23:29:50.006Z,9.83
2018-05-16T23:32:17.584Z,17.73
2018-05-16T23:34:46.557Z,16.93
2018-05-16T23:37:14.022Z,12.63
2018-05-16T23:39:41.482Z,13.80
2018-05-16T23:42:08.943Z,12.43
2018-05-16T23:44:36.431Z,10.40
2018-05-16T23:47:03.961Z,13.07
2018-05-16T23:49:31.510Z,12.10
2018-05-16T23:51:59.076Z,10.67
2018-05-16T23:54:27.344Z,10.17
2018-05-16T23:56:54.904Z,15.33
2018-05-16T23:59:22.377Z,13.30
